Time;durP1;ratioP1;P1;durP2;ratioP2;P2;SDS_P1;SDS_P2;PMS_P1;PMS_P2;Temp;Humidity;BMP_temperature;BMP_pressure;BME280_temperature;BME280_humidity;BME280_pressure;Samples;Min_cycle;Max_cycle;Signal;HPM_P1;HPM_P2
2021/12/12 00:00:15;;;;;;;48.97;31.13;;;-1.00;99.90;;;;;;5074886;28;20200;-65
2021/12/12 00:02:57;;;;;;;48.40;31.33;;;-1.10;99.90;;;;;;5078033;28;20228;-65
2021/12/12 00:05:32;;;;;;;48.47;29.85;;;-1.10;99.90;;;;;;5071429;28;20184;-65
2021/12/12 00:07:58;;;;;;;52.00;31.15;;;-1.10;99.90;;;;;;5072865;28;20516;-65
2021/12/12 00:10:28;;;;;;;46.75;29.50;;;-1.10;99.90;;;;;;5074974;28;20192;-65
2021/12/12 00:13:01;;;;;;;52.67;29.67;;;-1.10;99.90;;;;;;5076667;28;20204;-64
2021/12/12 00:15:27;;;;;;;53.38;32.45;;;-1.10;99.90;;;;;;5073465;28;20189;-64
2021/12/12 00:17:53;;;;;;;51.07;31.23;;;-1.20;99.90;;;;;;5076296;28;20522;-65
2021/12/12 00:20:23;;;;;;;49.05;28.73;;;-1.20;99.90;;;;;;5071239;28;20189;-64
2021/12/12 00:22:52;;;;;;;49.80;29.23;;;-1.30;99.90;;;;;;5065973;28;20203;-64
2021/12/12 00:25:19;;;;;;;44.00;29.38;;;-1.30;99.90;;;;;;5074715;28;20177;-65
2021/12/12 00:27:44;;;;;;;53.15;29.83;;;-1.30;99.90;;;;;;5082636;28;20629;-64
2021/12/12 00:30:12;;;;;;;54.50;31.70;;;-1.30;99.90;;;;;;5085573;28;20180;-65
2021/12/12 00:32:39;;;;;;;52.88;29.00;;;-1.20;99.90;;;;;;5070872;28;20193;-65
2021/12/12 00:35:09;;;;;;;52.55;30.85;;;-1.30;99.90;;;;;;5074166;28;20188;-64
2021/12/12 00:37:34;;;;;;;47.45;28.95;;;-1.30;99.90;;;;;;5085865;28;20193;-65
2021/12/12 00:40:11;;;;;;;51.17;29.17;;;-1.30;99.90;;;;;;5081630;28;20211;-64
2021/12/12 00:42:38;;;;;;;51.53;29.30;;;-1.40;99.90;;;;;;5079365;28;20234;-64
2021/12/12 00:45:15;;;;;;;46.15;28.30;;;-1.40;99.90;;;;;;5088277;28;20188;-64
2021/12/12 00:47:44;;;;;;;45.80;28.63;;;-1.40;99.90;;;;;;5086815;28;20184;-53
2021/12/12 00:50:33;;;;;;;52.60;29.42;;;-1.40;99.90;;;;;;5083784;28;20247;-64
2021/12/12 00:53:00;;;;;;;46.95;30.00;;;-1.40;99.90;;;;;;5088262;28;20270;-62
2021/12/12 00:55:26;;;;;;;44.08;27.83;;;-1.40;99.90;;;;;;5088060;28;20534;-64
2021/12/12 00:57:54;;;;;;;46.90;27.85;;;-1.50;99.90;;;;;;5080836;28;20228;-63
2021/12/12 01:00:30;;;;;;;48.40;27.38;;;-1.50;99.90;;;;;;5076639;28;20189;-64
2021/12/12 01:02:57;;;;;;;45.42;26.15;;;-1.50;99.90;;;;;;5073318;28;20206;-63
2021/12/12 01:05:25;;;;;;;46.65;27.35;;;-1.50;99.90;;;;;;5068000;28;20178;-69
2021/12/12 01:07:51;;;;;;;48.42;26.48;;;-1.40;99.90;;;;;;5084269;28;20300;-64
2021/12/12 01:10:46;;;;;;;43.88;27.50;;;-1.40;99.90;;;;;;5083373;28;20189;-64
2021/12/12 01:13:12;;;;;;;54.50;28.05;;;-1.40;99.90;;;;;;5081342;28;20545;-62
2021/12/12 01:15:51;;;;;;;47.63;28.50;;;-1.40;99.90;;;;;;5077077;28;20297;-64
2021/12/12 01:18:25;;;;;;;40.78;25.55;;;-1.30;99.90;;;;;;5071760;28;20443;-64
2021/12/12 01:21:11;;;;;;;42.75;27.17;;;-1.20;99.90;;;;;;5069821;28;20192;-64
2021/12/12 01:23:42;;;;;;;49.45;27.67;;;-1.30;99.90;;;;;;5083402;28;21008;-65
2021/12/12 01:26:08;;;;;;;41.95;25.25;;;-1.20;99.90;;;;;;5076563;28;20225;-65
2021/12/12 01:28:36;;;;;;;46.22;26.55;;;-1.20;99.90;;;;;;5077589;28;20188;-64
2021/12/12 01:31:05;;;;;;;45.03;25.90;;;-1.20;99.90;;;;;;5080703;28;20284;-64
2021/12/12 01:33:34;;;;;;;40.55;25.52;;;-1.20;99.90;;;;;;5072684;28;20195;-65
2021/12/12 01:36:06;;;;;;;43.75;26.40;;;-1.20;99.90;;;;;;5078469;28;20190;-65
2021/12/12 01:38:56;;;;;;;42.85;26.35;;;-1.20;99.90;;;;;;5071299;28;20182;-65
2021/12/12 01:41:31;;;;;;;38.42;24.00;;;-1.20;99.90;;;;;;5083901;28;20969;-65
2021/12/12 01:44:11;;;;;;;37.58;23.70;;;-1.20;99.90;;;;;;5080965;28;20313;-64
2021/12/12 01:46:43;;;;;;;36.95;24.10;;;-1.20;99.90;;;;;;5076326;28;20177;-63
2021/12/12 01:49:18;;;;;;;40.90;26.58;;;-1.20;99.90;;;;;;5068734;28;20177;-63
2021/12/12 01:51:45;;;;;;;39.92;22.45;;;-1.30;99.90;;;;;;5082311;28;21048;-64
2021/12/12 01:54:14;;;;;;;36.00;21.42;;;-1.30;99.90;;;;;;5073424;28;20196;-64
2021/12/12 01:56:50;;;;;;;39.15;22.50;;;-1.30;99.90;;;;;;5052306;28;20204;-64
2021/12/12 01:59:18;;;;;;;35.38;21.85;;;-1.30;99.90;;;;;;5080726;28;20184;-64
2021/12/12 02:01:51;;;;;;;39.67;24.08;;;-1.30;99.90;;;;;;5073162;28;20185;-64
2021/12/12 02:04:24;;;;;;;37.60;22.05;;;-1.30;99.90;;;;;;5073476;28;20690;-64
2021/12/12 02:06:51;;;;;;;35.33;23.85;;;-1.40;99.90;;;;;;5079185;28;20181;-63
2021/12/12 02:09:19;;;;;;;35.75;21.65;;;-1.40;99.90;;;;;;5085530;28;20196;-64
2021/12/12 02:11:46;;;;;;;35.95;23.10;;;-1.40;99.90;;;;;;5080474;28;20267;-63
2021/12/12 02:14:16;;;;;;;41.78;24.42;;;-1.40;99.90;;;;;;5069787;28;20538;-64
2021/12/12 02:16:52;;;;;;;36.60;22.77;;;-1.40;99.90;;;;;;5085480;28;20745;-64
2021/12/12 02:19:28;;;;;;;37.47;21.40;;;-1.40;99.90;;;;;;5077255;28;20212;-64
2021/12/12 02:22:26;;;;;;;34.60;21.33;;;-1.40;99.90;;;;;;5072440;28;20213;-64
2021/12/12 02:35:53;;;;;;;39.13;20.90;;;-1.50;99.90;;;;;;5080704;28;20184;-64
2021/12/12 02:38:30;;;;;;;35.20;20.60;;;-1.50;99.90;;;;;;5073930;28;20211;-64
2021/12/12 02:41:00;;;;;;;38.13;22.73;;;-1.50;99.90;;;;;;5075804;28;20197;-64
2021/12/12 02:43:29;;;;;;;34.55;21.30;;;-1.60;99.90;;;;;;5075100;28;20670;-64
2021/12/12 02:45:57;;;;;;;34.25;21.40;;;-1.60;99.90;;;;;;5080547;28;20201;-64
2021/12/12 02:48:47;;;;;;;36.28;20.40;;;-1.60;99.90;;;;;;5070965;28;20196;-64
2021/12/12 02:51:16;;;;;;;34.40;20.92;;;-1.60;99.90;;;;;;5075573;28;20307;-63
2021/12/12 02:53:54;;;;;;;32.90;19.73;;;-1.60;99.90;;;;;;5079487;28;20197;-64
2021/12/12 02:56:27;;;;;;;37.20;21.65;;;-1.60;99.90;;;;;;5080362;28;20264;-64
2021/12/12 02:58:53;;;;;;;35.63;21.20;;;-1.60;99.90;;;;;;5080495;28;20598;-64
2021/12/12 03:01:31;;;;;;;36.60;20.27;;;-1.60;99.90;;;;;;5078136;28;20610;-64
2021/12/12 03:03:57;;;;;;;32.08;21.40;;;-1.60;99.90;;;;;;5069511;28;20635;-64
2021/12/12 03:06:29;;;;;;;32.42;20.80;;;-1.70;99.90;;;;;;5072670;28;20390;-63
2021/12/12 03:09:00;;;;;;;38.05;20.00;;;-1.70;99.90;;;;;;5079598;28;20188;-64
2021/12/12 03:11:27;;;;;;;34.03;20.85;;;-1.60;99.90;;;;;;5070709;28;20230;-64
2021/12/12 03:13:54;;;;;;;31.45;20.10;;;-1.70;99.90;;;;;;5063697;28;20593;-65
2021/12/12 03:16:19;;;;;;;32.53;20.15;;;-1.70;99.90;;;;;;5067097;28;20268;-67
2021/12/12 03:18:46;;;;;;;32.83;19.50;;;-1.70;99.90;;;;;;5069404;28;20755;-65
2021/12/12 03:21:19;;;;;;;33.28;19.92;;;-1.70;99.90;;;;;;5070312;28;20521;-68
2021/12/12 03:23:52;;;;;;;33.97;19.85;;;-1.70;99.90;;;;;;5074933;28;20676;-65
2021/12/12 03:26:19;;;;;;;37.13;19.17;;;-1.70;99.90;;;;;;5082397;28;20234;-69
2021/12/12 03:28:47;;;;;;;31.83;19.85;;;-1.80;99.90;;;;;;5075374;28;20614;-67
2021/12/12 03:31:17;;;;;;;31.92;19.13;;;-1.80;99.90;;;;;;5081551;28;20194;-67
2021/12/12 03:33:43;;;;;;;31.13;19.70;;;-1.80;99.90;;;;;;5076194;28;20575;-65
2021/12/12 03:36:11;;;;;;;35.80;21.47;;;-1.80;99.90;;;;;;5078276;28;20190;-66
2021/12/12 03:38:41;;;;;;;35.28;20.63;;;-1.80;99.90;;;;;;5077534;28;20197;-64
2021/12/12 03:41:10;;;;;;;33.35;19.73;;;-1.80;99.90;;;;;;5082106;28;20181;-64
2021/12/12 03:43:37;;;;;;;33.88;20.02;;;-1.80;99.90;;;;;;5069091;28;20741;-73
2021/12/12 03:46:06;;;;;;;33.10;18.30;;;-1.80;99.90;;;;;;5068283;28;20188;-64
2021/12/12 03:48:34;;;;;;;34.22;18.42;;;-1.90;99.90;;;;;;5082439;28;20181;-64
2021/12/12 03:51:05;;;;;;;28.85;18.67;;;-1.90;99.90;;;;;;5085185;28;20229;-64
2021/12/12 03:53:34;;;;;;;31.58;18.30;;;-1.90;99.90;;;;;;5071524;28;20235;-64
2021/12/12 03:56:01;;;;;;;28.58;17.83;;;-1.90;99.90;;;;;;5071383;28;20197;-67
2021/12/12 03:58:27;;;;;;;31.73;18.63;;;-1.90;99.90;;;;;;5068016;28;20193;-64
2021/12/12 04:01:01;;;;;;;31.83;16.93;;;-1.90;99.90;;;;;;5063213;28;20190;-67
2021/12/12 04:03:27;;;;;;;30.08;18.35;;;-1.90;99.90;;;;;;5073695;28;20801;-64
2021/12/12 04:05:59;;;;;;;31.90;18.07;;;-1.90;99.90;;;;;;5068613;28;20188;-67
2021/12/12 04:08:35;;;;;;;30.38;17.52;;;-2.00;99.90;;;;;;5069305;28;20416;-63
2021/12/12 04:11:02;;;;;;;29.20;17.38;;;-2.00;99.90;;;;;;5086647;28;20184;-65
2021/12/12 04:13:27;;;;;;;29.15;17.60;;;-2.00;99.90;;;;;;5073657;28;20197;-67
2021/12/12 04:15:56;;;;;;;30.27;19.17;;;-2.00;99.90;;;;;;5068570;28;20190;-65
2021/12/12 04:18:27;;;;;;;31.05;18.35;;;-2.10;99.90;;;;;;5072917;28;20186;-67
2021/12/12 04:20:53;;;;;;;30.20;18.00;;;-2.10;99.90;;;;;;5082687;28;20223;-64
2021/12/12 04:23:23;;;;;;;31.88;19.50;;;-2.10;99.90;;;;;;5074563;28;20212;-66
2021/12/12 04:25:49;;;;;;;28.48;16.92;;;-2.10;99.90;;;;;;5080299;28;20181;-65
2021/12/12 04:28:16;;;;;;;30.70;18.38;;;-2.10;99.90;;;;;;5053641;28;20191;-67
2021/12/12 04:30:43;;;;;;;26.27;18.02;;;-2.10;99.90;;;;;;5082738;28;20184;-67
2021/12/12 04:33:08;;;;;;;32.00;17.95;;;-2.10;99.90;;;;;;5066826;28;20209;-66
2021/12/12 04:35:35;;;;;;;28.27;17.57;;;-2.20;99.90;;;;;;5071023;28;20644;-64
2021/12/12 04:38:03;;;;;;;31.70;18.00;;;-2.20;99.90;;;;;;5067804;28;20190;-66
2021/12/12 04:40:32;;;;;;;27.48;16.98;;;-2.20;99.90;;;;;;5078358;28;20216;-64
2021/12/12 04:42:58;;;;;;;27.50;17.00;;;-2.30;99.90;;;;;;5076001;28;20213;-65
2021/12/12 04:45:30;;;;;;;30.08;17.35;;;-2.20;99.90;;;;;;5076460;28;20231;-65
2021/12/12 04:51:07;;;;;;;29.10;17.58;;;-2.30;99.90;;;;;;5072784;28;20278;-64
2021/12/12 04:53:53;;;;;;;26.05;16.90;;;-2.30;99.90;;;;;;5059625;28;20205;-64
2021/12/12 04:56:26;;;;;;;28.70;17.23;;;-2.30;99.90;;;;;;5080275;28;20662;-64
2021/12/12 04:58:57;;;;;;;32.10;17.73;;;-2.40;99.90;;;;;;5083981;28;20188;-54
2021/12/12 05:01:30;;;;;;;29.10;16.95;;;-2.30;99.90;;;;;;5075170;28;20579;-64
2021/12/12 05:04:00;;;;;;;26.58;15.90;;;-2.30;99.90;;;;;;5076634;28;20305;-64
2021/12/12 05:06:49;;;;;;;30.20;18.40;;;-2.30;99.90;;;;;;5079793;28;20299;-69
2021/12/12 05:09:31;;;;;;;23.73;16.35;;;-2.30;99.90;;;;;;5076610;28;20276;-64
2021/12/12 05:12:26;;;;;;;31.60;17.02;;;-2.30;99.90;;;;;;5073857;28;20182;-64
2021/12/12 05:14:57;;;;;;;31.50;17.45;;;-2.30;99.90;;;;;;5049495;28;20194;-69
2021/12/12 05:17:28;;;;;;;29.13;16.55;;;-2.20;99.90;;;;;;5083255;28;20734;-64
2021/12/12 05:19:58;;;;;;;33.38;16.40;;;-2.20;99.90;;;;;;5083333;28;20663;-64
2021/12/12 05:22:52;;;;;;;31.13;17.40;;;-2.20;99.90;;;;;;5073105;28;20201;-65
2021/12/12 05:25:25;;;;;;;26.75;16.90;;;-2.10;99.90;;;;;;5077991;28;20211;-65
2021/12/12 05:27:54;;;;;;;29.40;16.33;;;-2.10;99.90;;;;;;5088356;28;20267;-64
2021/12/12 05:30:23;;;;;;;29.17;16.90;;;-2.10;99.90;;;;;;5081013;28;20182;-65
2021/12/12 05:32:50;;;;;;;27.95;16.40;;;-2.10;99.90;;;;;;5070158;28;20182;-65
2021/12/12 05:35:20;;;;;;;26.20;16.30;;;-2.00;99.90;;;;;;5085106;28;20189;-65
2021/12/12 05:37:49;;;;;;;25.45;16.33;;;-2.00;99.90;;;;;;5071116;28;20186;-64
2021/12/12 05:40:15;;;;;;;26.70;16.40;;;-1.90;99.90;;;;;;5072314;28;20185;-66
2021/12/12 05:42:43;;;;;;;27.60;16.25;;;-2.00;99.90;;;;;;5059578;28;20232;-64
2021/12/12 05:45:09;;;;;;;26.35;15.85;;;-1.90;99.90;;;;;;5073974;28;20177;-65
2021/12/12 05:47:35;;;;;;;25.08;16.27;;;-1.90;99.90;;;;;;5069951;28;20185;-65
2021/12/12 05:50:03;;;;;;;26.83;16.05;;;-2.00;99.90;;;;;;5070435;28;20221;-65
2021/12/12 05:52:29;;;;;;;28.98;16.55;;;-2.00;99.90;;;;;;5085361;28;20240;-47
2021/12/12 05:54:54;;;;;;;27.83;16.70;;;-2.00;99.90;;;;;;5074776;28;20193;-46
2021/12/12 05:57:25;;;;;;;26.73;16.00;;;-2.00;99.90;;;;;;5069806;28;20173;-48
2021/12/12 05:59:54;;;;;;;29.63;17.25;;;-2.00;99.90;;;;;;5078862;28;20622;-48
2021/12/12 06:02:21;;;;;;;29.33;16.88;;;-2.00;99.90;;;;;;5071533;28;21077;-46
2021/12/12 06:04:46;;;;;;;24.08;15.93;;;-2.10;99.90;;;;;;5077418;28;20355;-46
2021/12/12 06:07:17;;;;;;;22.13;15.13;;;-2.10;99.90;;;;;;5073016;28;20700;-49
2021/12/12 06:09:45;;;;;;;25.02;14.90;;;-2.20;99.90;;;;;;5071928;28;20192;-48
2021/12/12 06:12:12;;;;;;;23.63;14.55;;;-2.20;99.90;;;;;;5060765;28;20667;-47
2021/12/12 06:14:38;;;;;;;24.75;14.45;;;-2.20;99.90;;;;;;5060325;28;20197;-47
2021/12/12 06:17:08;;;;;;;25.10;15.85;;;-2.20;99.90;;;;;;5084202;28;20189;-50
2021/12/12 06:19:36;;;;;;;24.55;15.82;;;-2.30;99.90;;;;;;5075740;28;20185;-50
2021/12/12 06:22:03;;;;;;;27.70;14.88;;;-2.30;99.90;;;;;;5072660;28;20193;-48
2021/12/12 06:24:31;;;;;;;25.08;14.43;;;-2.40;99.90;;;;;;5070247;28;20198;-48
2021/12/12 06:27:06;;;;;;;25.35;15.75;;;-2.40;99.90;;;;;;5081590;28;20185;-52
2021/12/12 06:29:33;;;;;;;26.33;16.17;;;-2.40;99.90;;;;;;5077478;28;20181;-47
2021/12/12 06:31:59;;;;;;;25.30;16.67;;;-2.30;99.90;;;;;;5086215;28;20185;-51
2021/12/12 06:34:25;;;;;;;27.30;16.50;;;-2.40;99.90;;;;;;5070525;28;20212;-47
2021/12/12 06:36:52;;;;;;;28.13;16.17;;;-2.40;99.90;;;;;;5076356;28;20178;-46
2021/12/12 06:39:18;;;;;;;24.42;16.15;;;-2.40;99.90;;;;;;5082579;28;20256;-49
2021/12/12 06:41:45;;;;;;;27.48;15.88;;;-2.40;99.90;;;;;;5075334;28;20181;-49
2021/12/12 06:44:11;;;;;;;27.92;17.27;;;-2.30;99.90;;;;;;5070065;28;20185;-49
2021/12/12 06:46:40;;;;;;;24.93;15.07;;;-2.40;99.90;;;;;;5075258;28;20196;-47
2021/12/12 06:49:08;;;;;;;25.95;16.63;;;-2.50;99.90;;;;;;5079162;28;20525;-47
2021/12/12 06:51:41;;;;;;;29.92;16.10;;;-2.40;99.90;;;;;;5055863;28;20213;-48
2021/12/12 06:54:08;;;;;;;25.42;16.77;;;-2.40;99.90;;;;;;5062601;28;20196;-49
2021/12/12 06:56:34;;;;;;;29.63;17.45;;;-2.30;99.90;;;;;;5077833;28;20650;-50
2021/12/12 06:59:01;;;;;;;30.85;17.42;;;-2.40;99.90;;;;;;5073327;28;20570;-51
2021/12/12 07:01:31;;;;;;;26.48;16.23;;;-2.40;99.90;;;;;;5071046;28;20272;-50
2021/12/12 07:03:57;;;;;;;29.58;17.52;;;-2.40;99.90;;;;;;5083502;28;20336;-47
2021/12/12 07:06:25;;;;;;;27.30;17.80;;;-2.30;99.90;;;;;;5068557;28;20948;-45
2021/12/12 07:08:56;;;;;;;32.58;17.70;;;-2.30;99.90;;;;;;5084914;28;20196;-46
2021/12/12 07:11:26;;;;;;;31.98;16.77;;;-2.30;99.90;;;;;;5078364;28;20189;-46
2021/12/12 07:13:52;;;;;;;29.42;16.98;;;-2.30;99.90;;;;;;5066490;28;20193;-48
2021/12/12 07:16:21;;;;;;;27.75;16.92;;;-2.30;99.90;;;;;;5073586;28;20272;-46
2021/12/12 07:18:48;;;;;;;27.70;16.35;;;-2.30;99.90;;;;;;5069471;28;20563;-47
2021/12/12 07:21:15;;;;;;;32.60;17.40;;;-2.30;99.90;;;;;;5071060;28;20253;-47
2021/12/12 07:23:44;;;;;;;29.00;18.38;;;-2.20;99.90;;;;;;5060348;28;20304;-51
2021/12/12 07:26:11;;;;;;;29.25;16.45;;;-2.20;99.90;;;;;;5042891;28;20186;-48
2021/12/12 07:28:39;;;;;;;32.55;17.10;;;-2.10;99.90;;;;;;5051426;28;20185;-50
2021/12/12 07:31:12;;;;;;;29.90;16.95;;;-2.00;99.90;;;;;;5045868;28;20384;-49
2021/12/12 07:33:39;;;;;;;25.80;16.13;;;-1.90;99.90;;;;;;5043047;28;20182;-50
2021/12/12 07:36:08;;;;;;;27.90;16.45;;;-1.80;99.90;;;;;;5042093;28;20186;-51
2021/12/12 07:38:36;;;;;;;30.88;16.98;;;-1.70;99.90;;;;;;5025220;28;20234;-49
2021/12/12 07:41:04;;;;;;;30.15;16.10;;;-1.60;99.90;;;;;;5044188;28;20209;-47
2021/12/12 07:43:31;;;;;;;27.67;15.48;;;-1.60;99.90;;;;;;5045354;28;20214;-49
2021/12/12 07:45:57;;;;;;;26.23;16.05;;;-1.60;99.90;;;;;;5047147;28;20181;-47
2021/12/12 07:48:23;;;;;;;29.80;17.17;;;-1.50;99.90;;;;;;5045012;28;20760;-48
2021/12/12 07:50:51;;;;;;;25.98;16.60;;;-1.40;99.90;;;;;;5057883;28;21061;-49
2021/12/12 07:53:18;;;;;;;23.58;15.30;;;-1.20;99.90;;;;;;5034478;28;20201;-49
2021/12/12 07:55:46;;;;;;;25.90;16.08;;;-1.20;99.90;;;;;;5052519;28;20190;-49
2021/12/12 07:58:14;;;;;;;25.23;15.48;;;-1.20;99.90;;;;;;5050236;28;20206;-50
2021/12/12 08:00:42;;;;;;;26.05;16.90;;;-1.20;99.90;;;;;;5054465;28;21129;-52
2021/12/12 08:03:08;;;;;;;29.80;17.25;;;-1.10;99.90;;;;;;5044764;28;21181;-47
2021/12/12 08:05:35;;;;;;;28.10;17.27;;;-0.90;99.90;;;;;;5056085;28;21020;-46
2021/12/12 08:08:06;;;;;;;23.50;15.00;;;-0.70;99.90;;;;;;5050020;28;20240;-48
2021/12/12 08:10:33;;;;;;;27.05;16.38;;;-0.60;99.90;;;;;;5044511;28;20182;-50
2021/12/12 08:12:58;;;;;;;25.98;15.90;;;-0.40;99.90;;;;;;5051343;28;20194;-47
2021/12/12 08:15:27;;;;;;;25.73;16.03;;;-0.20;99.90;;;;;;5047815;28;20198;-49
2021/12/12 08:17:54;;;;;;;20.50;14.25;;;0.10;99.90;;;;;;5041581;28;20276;-45
2021/12/12 08:20:20;;;;;;;24.75;15.85;;;0.40;99.90;;;;;;5044293;28;20186;-48
2021/12/12 08:22:48;;;;;;;22.88;15.32;;;0.70;99.90;;;;;;5031318;28;20217;-47
2021/12/12 08:25:16;;;;;;;22.35;14.25;;;1.00;99.90;;;;;;5047046;28;20236;-47
2021/12/12 08:27:42;;;;;;;20.58;15.48;;;1.10;99.90;;;;;;5045455;28;20232;-46
2021/12/12 08:30:10;;;;;;;19.83;13.65;;;0.90;99.90;;;;;;5043550;28;20189;-49
2021/12/12 08:32:37;;;;;;;17.90;12.57;;;1.10;99.90;;;;;;5041699;28;20228;-47
2021/12/12 08:35:05;;;;;;;19.70;14.02;;;1.10;99.90;;;;;;5043335;28;20228;-46
2021/12/12 08:37:31;;;;;;;19.73;12.80;;;1.10;99.90;;;;;;5041578;28;20182;-48
2021/12/12 08:39:57;;;;;;;17.87;13.17;;;1.00;99.90;;;;;;5042471;28;20806;-48
2021/12/12 08:42:26;;;;;;;18.00;13.30;;;1.00;99.90;;;;;;5036348;28;20780;-49
2021/12/12 08:44:57;;;;;;;19.92;13.15;;;0.80;99.90;;;;;;5042350;28;20179;-49
2021/12/12 08:47:23;;;;;;;17.02;12.70;;;0.90;99.90;;;;;;5051353;28;20181;-45
2021/12/12 08:49:50;;;;;;;20.83;15.27;;;1.00;99.90;;;;;;5042499;28;20229;-46
2021/12/12 08:52:21;;;;;;;22.77;14.20;;;1.10;99.90;;;;;;5041940;28;20299;-48
2021/12/12 08:54:49;;;;;;;21.33;13.38;;;1.20;99.90;;;;;;5047387;28;20178;-48
2021/12/12 09:00:10;;;;;;;20.63;13.23;;;1.70;99.90;;;;;;5046233;28;20264;-49
2021/12/12 09:02:36;;;;;;;19.33;12.75;;;2.00;99.90;;;;;;5037287;28;20271;-50
2021/12/12 09:05:08;;;;;;;17.67;12.70;;;2.20;99.90;;;;;;5040560;28;20187;-49
2021/12/12 09:07:38;;;;;;;19.60;13.07;;;2.10;99.90;;;;;;5041072;28;20268;-46
2021/12/12 09:10:07;;;;;;;16.33;11.93;;;2.10;99.90;;;;;;5048738;28;20179;-51
2021/12/12 09:12:59;;;;;;;18.88;12.75;;;2.30;99.90;;;;;;5042687;28;20190;-50
2021/12/12 09:15:53;;;;;;;19.90;13.25;;;2.40;99.90;;;;;;5043185;28;20186;-46
2021/12/12 09:18:27;;;;;;;18.20;11.82;;;2.60;99.90;;;;;;5059978;28;20228;-45
2021/12/12 09:21:10;;;;;;;19.38;12.25;;;2.60;99.90;;;;;;5051865;28;20196;-51
2021/12/12 09:23:45;;;;;;;16.23;12.07;;;2.80;99.90;;;;;;5062113;28;20262;-50
2021/12/12 09:26:21;;;;;;;15.32;11.95;;;3.20;99.90;;;;;;5066883;28;20181;-53
2021/12/12 09:28:57;;;;;;;16.13;11.57;;;3.70;99.90;;;;;;5055042;28;20181;-52
2021/12/12 09:31:29;;;;;;;17.08;12.57;;;4.20;99.90;;;;;;5080707;28;20647;-50
2021/12/12 09:34:06;;;;;;;16.50;12.82;;;4.40;99.90;;;;;;5070384;28;20185;-50
2021/12/12 09:36:35;;;;;;;16.65;13.35;;;4.60;99.90;;;;;;5064747;28;20185;-50
2021/12/12 09:39:32;;;;;;;17.55;12.60;;;4.70;99.90;;;;;;5069751;28;20177;-53
2021/12/12 09:42:03;;;;;;;15.27;13.02;;;4.90;99.90;;;;;;5065292;28;20183;-55
2021/12/12 09:44:40;;;;;;;15.13;12.10;;;4.80;99.90;;;;;;5063546;28;20743;-55
2021/12/12 09:47:57;;;;;;;14.68;12.27;;;5.00;99.90;;;;;;5073052;28;20311;-50
2021/12/12 09:51:15;;;;;;;16.38;13.15;;;5.40;99.90;;;;;;5058443;28;20228;-55
2021/12/12 09:53:56;;;;;;;20.53;14.07;;;6.00;99.90;;;;;;5077299;28;20204;-55
2021/12/12 09:56:48;;;;;;;15.70;13.27;;;6.00;99.90;;;;;;5074412;28;20941;-49
2021/12/12 09:59:40;;;;;;;16.03;13.90;;;6.00;99.40;;;;;;5069617;28;21018;-51
2021/12/12 10:02:30;;;;;;;15.87;14.10;;;6.00;99.30;;;;;;5068190;28;20507;-55
2021/12/12 10:05:06;;;;;;;16.67;14.37;;;6.70;99.90;;;;;;5073685;28;20435;-49
2021/12/12 10:07:41;;;;;;;15.13;13.30;;;7.20;97.80;;;;;;5058537;28;20474;-51
2021/12/12 10:10:13;;;;;;;16.37;14.03;;;7.60;95.90;;;;;;5082194;28;21081;-51
2021/12/12 10:12:53;;;;;;;16.83;13.83;;;7.50;95.20;;;;;;5067380;28;20462;-54
2021/12/12 10:15:25;;;;;;;15.77;14.10;;;7.70;94.80;;;;;;5079456;28;20442;-52
2021/12/12 10:18:01;;;;;;;17.13;13.90;;;7.60;94.10;;;;;;5076971;28;20431;-51
2021/12/12 10:20:41;;;;;;;15.03;13.47;;;7.60;94.00;;;;;;5073524;28;20496;-54
2021/12/12 10:23:12;;;;;;;16.53;13.53;;;7.80;94.30;;;;;;5050419;28;20806;-51
2021/12/12 10:25:44;;;;;;;16.93;14.37;;;7.40;94.60;;;;;;5060866;28;20522;-50
2021/12/12 10:28:24;;;;;;;16.30;14.60;;;7.00;95.40;;;;;;5051821;28;20937;-46
2021/12/12 10:31:05;;;;;;;17.80;15.00;;;6.50;96.10;;;;;;5050140;28;20924;-52
2021/12/12 10:33:41;;;;;;;18.25;14.23;;;5.80;97.80;;;;;;5053667;28;20444;-54
2021/12/12 10:36:13;;;;;;;19.70;15.80;;;5.40;99.30;;;;;;5033366;28;20228;-54
2021/12/12 10:38:41;;;;;;;20.08;14.77;;;5.20;99.90;;;;;;5057395;28;20436;-50
2021/12/12 10:41:18;;;;;;;18.40;14.57;;;5.20;99.90;;;;;;5043806;28;20190;-52
2021/12/12 10:43:53;;;;;;;18.15;13.98;;;5.40;99.90;;;;;;5048661;28;20704;-50
2021/12/12 10:46:44;;;;;;;18.85;14.50;;;5.70;99.90;;;;;;5042470;28;20231;-47
2021/12/12 10:49:33;;;;;;;16.42;14.05;;;5.90;99.90;;;;;;5040576;28;20269;-46
2021/12/12 10:52:06;;;;;;;19.65;15.18;;;6.10;99.90;;;;;;5023093;28;20715;-49
2021/12/12 10:54:47;;;;;;;17.25;14.55;;;6.10;99.90;;;;;;5050764;28;20188;-50
2021/12/12 10:57:20;;;;;;;21.60;16.30;;;6.30;99.90;;;;;;5059532;28;20177;-53
2021/12/12 11:00:00;;;;;;;23.23;15.40;;;6.60;99.90;;;;;;5067033;28;20470;-50
2021/12/12 11:02:32;;;;;;;16.60;14.80;;;7.00;99.70;;;;;;5076304;28;20471;-53
2021/12/12 11:05:17;;;;;;;17.97;15.43;;;7.40;98.20;;;;;;5081279;28;20439;-51
2021/12/12 11:07:53;;;;;;;17.43;14.90;;;7.70;97.00;;;;;;5078957;28;20498;-52
2021/12/12 11:10:24;;;;;;;17.30;14.30;;;7.70;95.60;;;;;;5078782;28;20492;-48
2021/12/12 11:13:01;;;;;;;17.10;14.83;;;7.80;95.10;;;;;;5072143;28;20441;-48
2021/12/12 11:15:33;;;;;;;16.53;14.73;;;7.50;95.30;;;;;;5069006;28;20416;-48
2021/12/12 11:18:11;;;;;;;16.10;14.40;;;7.30;95.50;;;;;;5068224;28;21014;-48
2021/12/12 11:20:49;;;;;;;20.30;15.50;;;7.20;96.20;;;;;;5063358;28;20438;-52
2021/12/12 11:23:38;;;;;;;17.83;14.93;;;7.40;96.20;;;;;;5066555;28;20449;-47
2021/12/12 11:26:08;;;;;;;17.33;15.07;;;7.80;95.80;;;;;;5034037;28;20469;-50
2021/12/12 11:28:38;;;;;;;19.00;15.70;;;7.80;95.10;;;;;;5071716;28;20973;-52
2021/12/12 11:31:44;;;;;;;17.30;15.50;;;7.80;95.10;;;;;;5078288;28;20460;-54
2021/12/12 11:34:11;;;;;;;18.17;15.57;;;7.30;95.40;;;;;;5065549;28;20447;-56
2021/12/12 11:37:05;;;;;;;16.93;14.93;;;6.90;96.30;;;;;;5062859;28;21085;-53
2021/12/12 11:39:35;;;;;;;20.83;15.63;;;6.90;97.40;;;;;;5065143;28;20443;-52
2021/12/12 11:42:11;;;;;;;19.23;15.83;;;6.90;98.20;;;;;;5065556;28;20459;-50
2021/12/12 11:44:48;;;;;;;17.50;15.60;;;6.70;98.10;;;;;;5077087;28;20426;-50
2021/12/12 11:47:35;;;;;;;17.70;15.10;;;6.80;98.50;;;;;;5061812;28;20899;-54
2021/12/12 11:50:03;;;;;;;18.00;15.70;;;7.00;98.30;;;;;;5057490;28;20459;-51
2021/12/12 11:52:45;;;;;;;17.00;15.17;;;7.00;97.40;;;;;;5066136;28;20443;-53
2021/12/12 11:55:23;;;;;;;18.20;16.00;;;6.80;98.50;;;;;;5071470;28;20472;-55
2021/12/12 11:58:23;;;;;;;20.90;16.20;;;6.80;98.30;;;;;;5070388;28;20446;-49
2021/12/12 12:01:07;;;;;;;18.63;16.63;;;6.90;97.70;;;;;;5067529;28;20539;-48
2021/12/12 12:04:04;;;;;;;17.30;14.70;;;6.70;98.60;;;;;;5058982;28;20487;-52
2021/12/12 12:06:39;;;;;;;19.73;15.80;;;6.90;98.40;;;;;;5049147;28;20439;-50
2021/12/12 12:09:17;;;;;;;17.23;15.53;;;6.90;98.50;;;;;;5053985;28;20526;-53
2021/12/12 12:12:08;;;;;;;19.13;15.00;;;6.80;98.70;;;;;;5057050;28;20426;-51
2021/12/12 12:15:09;;;;;;;18.53;15.70;;;6.50;99.00;;;;;;5059305;28;20466;-51
2021/12/12 12:17:58;;;;;;;18.00;15.37;;;6.60;99.60;;;;;;5049148;28;20427;-50
2021/12/12 12:20:36;;;;;;;15.73;13.88;;;6.40;99.70;;;;;;5055326;28;21255;-49
2021/12/12 12:23:33;;;;;;;17.73;14.65;;;6.30;99.90;;;;;;5051741;28;20939;-57
2021/12/12 12:29:33;;;;;;;21.70;15.10;;;6.60;99.90;;;;;;5048100;28;20419;-53
2021/12/12 12:32:04;;;;;;;19.90;16.27;;;6.90;99.40;;;;;;5048328;28;20495;-50
2021/12/12 12:34:54;;;;;;;19.30;14.53;;;7.10;99.40;;;;;;5064101;28;21225;-57
2021/12/12 12:37:53;;;;;;;15.70;13.97;;;7.90;99.60;;;;;;5060057;28;20463;-51
2021/12/12 12:41:29;;;;;;;16.80;14.53;;;8.80;96.90;;;;;;5065053;28;20423;-54
2021/12/12 12:44:32;;;;;;;16.77;13.90;;;9.50;94.80;;;;;;5023426;28;20472;-52
2021/12/12 12:47:18;;;;;;;17.47;14.93;;;9.60;93.90;;;;;;5067712;28;20489;-51
2021/12/12 12:50:12;;;;;;;18.80;14.70;;;9.70;93.30;;;;;;5086713;28;20806;-55
2021/12/12 12:52:51;;;;;;;17.73;14.40;;;9.60;92.90;;;;;;5066769;28;20526;-54
2021/12/12 12:55:41;;;;;;;16.90;13.53;;;9.20;92.50;;;;;;5063330;28;20823;-49
2021/12/12 12:58:15;;;;;;;17.80;15.63;;;8.50;92.70;;;;;;5088522;28;20395;-49
2021/12/12 13:00:43;;;;;;;17.10;14.27;;;7.90;94.50;;;;;;5088433;28;20403;-52
2021/12/12 13:03:27;;;;;;;16.77;14.93;;;7.40;95.60;;;;;;5070059;28;20470;-50
2021/12/12 13:06:02;;;;;;;18.60;16.47;;;6.90;97.20;;;;;;5071659;28;20450;-52
2021/12/12 13:08:49;;;;;;;18.70;15.50;;;6.50;99.30;;;;;;5074589;28;20556;-47
2021/12/12 13:11:32;;;;;;;18.20;15.70;;;6.40;99.90;;;;;;5066930;28;20431;-54
2021/12/12 13:14:06;;;;;;;19.43;15.60;;;6.20;99.90;;;;;;5068040;28;20471;-61
2021/12/12 13:16:52;;;;;;;20.35;16.48;;;6.10;99.90;;;;;;5084760;28;20459;-57
2021/12/12 13:19:26;;;;;;;20.63;16.45;;;6.00;99.90;;;;;;5075529;28;20196;-62
2021/12/12 13:22:10;;;;;;;18.60;15.40;;;5.70;99.90;;;;;;5075982;28;20229;-62